createdAt,value
2022-08-28T00:00:59.578Z,15.60
2022-08-28T00:11:21.564Z,15.61
2022-08-28T00:21:43.403Z,15.45
2022-08-28T00:32:05.533Z,15.37
2022-08-28T00:42:27.579Z,15.19
2022-08-28T00:52:55.050Z,15.01
2022-08-28T01:03:16.823Z,15.06
2022-08-28T01:13:41.513Z,14.90
2022-08-28T01:24:09.112Z,14.81
2022-08-28T01:34:31.550Z,14.66
2022-08-28T01:44:54.273Z,14.63
2022-08-28T01:55:15.953Z,14.66
2022-08-28T02:05:43.105Z,14.57
2022-08-28T02:16:07.170Z,14.57
2022-08-28T02:26:30.214Z,14.56
2022-08-28T02:36:51.791Z,14.35
2022-08-28T02:47:15.151Z,14.44
2022-08-28T02:57:37.090Z,14.22
2022-08-28T03:07:59.029Z,14.04
2022-08-28T03:18:20.887Z,13.91
2022-08-28T03:28:50.781Z,14.07
2022-08-28T03:39:13.838Z,14.07
2022-08-28T03:49:35.419Z,13.77
2022-08-28T03:59:56.979Z,13.82
2022-08-28T04:10:18.503Z,13.52
2022-08-28T04:20:40.060Z,13.78
2022-08-28T04:31:01.804Z,13.69
2022-08-28T04:41:23.351Z,13.86
2022-08-28T04:51:44.973Z,13.79
2022-08-28T05:02:08.569Z,13.77
2022-08-28T05:12:30.100Z,13.78
2022-08-28T05:22:51.616Z,13.82
2022-08-28T05:33:14.806Z,13.96
2022-08-28T05:43:36.848Z,14.33
2022-08-28T05:53:58.642Z,14.52
2022-08-28T06:04:25.442Z,14.60
2022-08-28T06:14:47.204Z,14.91
2022-08-28T06:25:11.113Z,15.28
2022-08-28T06:35:34.080Z,15.56
2022-08-28T06:45:57.641Z,15.91
2022-08-28T06:56:26.117Z,15.91
2022-08-28T07:06:54.824Z,16.43
2022-08-28T07:17:16.600Z,16.74
2022-08-28T07:27:38.412Z,17.12
2022-08-28T07:37:59.937Z,17.25
2022-08-28T07:48:22.139Z,17.50
2022-08-28T07:58:43.810Z,17.82
2022-08-28T08:09:07.314Z,18.32
2022-08-28T08:19:28.944Z,18.07
2022-08-28T08:29:50.997Z,18.35
2022-08-28T08:40:19.055Z,18.43
2022-08-28T08:50:41.383Z,18.59
2022-08-28T09:01:23.757Z,18.79
2022-08-28T09:11:56.536Z,19.11
2022-08-28T09:22:19.528Z,19.33
2022-08-28T09:32:45.106Z,19.35
2022-08-28T09:43:31.358Z,19.61
2022-08-28T09:53:53.521Z,19.43
2022-08-28T10:04:36.765Z,20.03
2022-08-28T10:15:16.539Z,20.31
2022-08-28T10:25:52.241Z,20.04
2022-08-28T10:36:34.561Z,20.23
2022-08-28T10:46:58.793Z,20.38
2022-08-28T10:57:53.018Z,20.46
2022-08-28T11:08:29.412Z,20.38
2022-08-28T11:19:10.080Z,19.72
2022-08-28T11:30:06.864Z,20.02
2022-08-28T11:40:29.980Z,20.52
2022-08-28T11:51:02.574Z,20.10
2022-08-28T12:01:36.171Z,20.96
2022-08-28T12:12:21.772Z,20.49
2022-08-28T12:22:54.081Z,21.26
2022-08-28T12:33:46.144Z,20.54
2022-08-28T12:44:12.331Z,20.18
2022-08-28T12:54:35.460Z,20.70
2022-08-28T13:05:10.585Z,20.78
2022-08-28T13:16:11.864Z,20.73
2022-08-28T13:26:35.978Z,20.56
2022-08-28T13:37:07.237Z,20.64
2022-08-28T13:47:37.002Z,21.07
2022-08-28T13:57:58.903Z,21.28
2022-08-28T14:08:20.731Z,20.80
2022-08-28T14:18:42.320Z,20.94
2022-08-28T14:29:07.731Z,21.10
2022-08-28T14:39:31.014Z,20.65
2022-08-28T14:49:52.696Z,20.58
2022-08-28T15:00:16.471Z,21.21
2022-08-28T15:10:39.854Z,21.56
2022-08-28T15:21:01.690Z,21.21
2022-08-28T15:31:24.680Z,20.73
2022-08-28T15:41:47.115Z,20.99
2022-08-28T15:52:08.706Z,20.58
2022-08-28T16:02:30.517Z,20.55
2022-08-28T16:12:57.444Z,20.71
2022-08-28T16:23:19.354Z,21.06
2022-08-28T16:33:41.167Z,20.95
2022-08-28T16:44:02.964Z,20.77
2022-08-28T16:54:24.522Z,19.90
2022-08-28T17:04:46.047Z,19.94
2022-08-28T17:15:09.022Z,19.74
2022-08-28T17:25:33.003Z,19.49
2022-08-28T17:35:55.676Z,19.54
2022-08-28T17:46:18.445Z,19.20
2022-08-28T17:56:41.132Z,19.16
2022-08-28T18:07:02.771Z,19.05
2022-08-28T18:17:25.519Z,18.90
2022-08-28T18:27:47.089Z,18.74
2022-08-28T18:38:09.372Z,18.65
2022-08-28T18:48:31.633Z,18.72
2022-08-28T18:58:53.627Z,18.68
2022-08-28T19:09:20.491Z,18.65
2022-08-28T19:19:42.405Z,18.73
2022-08-28T19:30:10.362Z,18.57
2022-08-28T19:40:33.717Z,18.66
2022-08-28T19:51:06.366Z,18.32
2022-08-28T20:01:44.899Z,18.49
2022-08-28T20:12:06.566Z,18.28
2022-08-28T20:22:28.767Z,18.31
2022-08-28T20:32:50.341Z,18.38
2022-08-28T20:43:12.011Z,18.30
2022-08-28T20:53:37.385Z,18.27
2022-08-28T21:03:59.889Z,18.27
2022-08-28T21:14:21.635Z,18.00
2022-08-28T21:24:43.160Z,17.84
2022-08-28T21:35:06.823Z,17.55
2022-08-28T21:45:28.516Z,17.40
2022-08-28T21:55:51.586Z,17.17
2022-08-28T22:06:19.409Z,17.17
2022-08-28T22:16:41.042Z,17.09
2022-08-28T22:27:02.609Z,16.77
2022-08-28T22:37:25.789Z,16.79
2022-08-28T22:47:51.311Z,16.85
2022-08-28T22:58:12.988Z,16.84
2022-08-28T23:08:35.375Z,16.84
2022-08-28T23:19:09.096Z,16.76
2022-08-28T23:29:31.881Z,16.83
2022-08-28T23:39:54.515Z,16.97
2022-08-28T23:50:19.567Z,16.97
